Time;durP1;ratioP1;P1;durP2;ratioP2;P2;SDS_P1;SDS_P2;PMS_P1;PMS_P2;Temp;Humidity;BMP_temperature;BMP_pressure;BME280_temperature;BME280_humidity;BME280_pressure;Samples;Min_cycle;Max_cycle;Signal;HPM_P1;HPM_P2
2022/09/24 00:01:14;;;;;;;3.67;2.72;;;11.30;99.90;;;;;;6213796;23;20288;-79
2022/09/24 00:03:41;;;;;;;4.10;3.40;;;11.30;99.90;;;;;;6213892;23;20009;-80
2022/09/24 00:06:08;;;;;;;5.80;4.10;;;11.20;99.90;;;;;;6189705;23;20001;-80
2022/09/24 00:08:34;;;;;;;7.63;3.78;;;11.20;99.90;;;;;;6190845;23;20020;-80
2022/09/24 00:11:03;;;;;;;5.10;3.50;;;11.20;99.90;;;;;;6193152;23;20068;-80
2022/09/24 00:13:29;;;;;;;4.05;3.50;;;11.10;99.90;;;;;;6190588;23;20063;-80
2022/09/24 00:15:54;;;;;;;3.75;2.85;;;11.10;99.90;;;;;;6189807;23;20080;-80
2022/09/24 00:18:20;;;;;;;3.63;3.08;;;11.10;99.90;;;;;;6192676;23;19981;-80
2022/09/24 00:20:46;;;;;;;3.22;2.92;;;11.20;99.90;;;;;;6194423;23;19997;-79
2022/09/24 00:23:12;;;;;;;3.95;2.83;;;11.20;99.90;;;;;;6196384;23;20282;-80
2022/09/24 00:28:26;;;;;;;4.45;3.17;;;11.30;99.90;;;;;;6192704;23;20012;-79
2022/09/24 00:30:52;;;;;;;4.90;2.80;;;11.30;99.90;;;;;;6189809;23;20004;-79
2022/09/24 00:33:18;;;;;;;3.47;2.88;;;11.30;99.90;;;;;;6189546;23;20069;-79
2022/09/24 00:35:43;;;;;;;4.38;2.97;;;11.30;99.90;;;;;;6190188;23;20043;-79
2022/09/24 00:38:09;;;;;;;4.68;3.38;;;11.30;99.90;;;;;;6189516;23;19998;-79
2022/09/24 00:40:36;;;;;;;3.97;3.15;;;11.30;99.90;;;;;;6190238;23;20341;-79
2022/09/24 00:43:24;;;;;;;4.63;3.13;;;11.30;99.90;;;;;;6190913;23;20001;-79
2022/09/24 00:45:52;;;;;;;4.47;3.42;;;11.40;99.90;;;;;;6192099;23;20048;-79
2022/09/24 00:48:18;;;;;;;4.43;3.50;;;11.40;99.90;;;;;;6189602;23;20068;-79
2022/09/24 00:50:44;;;;;;;4.75;3.65;;;11.40;99.90;;;;;;6190185;23;20077;-80
2022/09/24 00:53:18;;;;;;;3.92;3.03;;;11.40;99.90;;;;;;6192191;23;20001;-79
2022/09/24 00:55:49;;;;;;;4.28;3.38;;;11.40;99.90;;;;;;6212364;23;20322;-79
2022/09/24 00:58:15;;;;;;;4.22;3.20;;;11.40;99.90;;;;;;6216815;23;20095;-79
2022/09/24 01:00:44;;;;;;;4.28;3.28;;;11.30;99.90;;;;;;6190026;23;20001;-80
2022/09/24 01:03:18;;;;;;;4.15;3.20;;;11.30;99.90;;;;;;6189464;23;20004;-79
2022/09/24 01:05:43;;;;;;;3.70;3.10;;;11.20;99.90;;;;;;6190242;23;20023;-79
2022/09/24 01:08:15;;;;;;;4.03;3.47;;;11.20;99.90;;;;;;6188951;23;20080;-79
2022/09/24 01:10:50;;;;;;;4.28;3.13;;;11.20;99.90;;;;;;6190018;23;20001;-79
2022/09/24 01:13:40;;;;;;;3.38;2.90;;;11.20;99.90;;;;;;6192080;23;20027;-79
2022/09/24 01:16:10;;;;;;;3.17;2.90;;;11.20;99.90;;;;;;6189176;23;20066;-79
2022/09/24 01:18:51;;;;;;;4.85;2.92;;;11.20;99.90;;;;;;6189107;23;20324;-79
2022/09/24 01:21:37;;;;;;;3.63;2.90;;;11.10;99.90;;;;;;6189981;23;19997;-80
2022/09/24 01:24:27;;;;;;;4.20;3.05;;;11.10;99.90;;;;;;6192800;23;19997;-79
2022/09/24 01:27:11;;;;;;;4.75;3.25;;;11.10;99.90;;;;;;6230490;23;19997;-79
2022/09/24 01:29:46;;;;;;;4.07;2.75;;;11.10;99.90;;;;;;6200331;23;20360;-80
2022/09/24 01:32:19;;;;;;;3.13;2.83;;;11.10;99.90;;;;;;6204160;23;20048;-80
2022/09/24 01:35:02;;;;;;;2.92;2.70;;;11.10;99.90;;;;;;6193413;23;20001;-80
2022/09/24 01:37:32;;;;;;;3.17;2.63;;;11.10;99.90;;;;;;6221740;23;20048;-80
2022/09/24 01:39:59;;;;;;;3.40;2.80;;;11.10;99.90;;;;;;6198902;23;20005;-78
2022/09/24 01:42:29;;;;;;;2.92;2.67;;;11.00;99.90;;;;;;6189044;23;20001;-79
2022/09/24 01:44:56;;;;;;;3.75;2.97;;;11.00;99.90;;;;;;6189233;23;20001;-79
2022/09/24 01:47:36;;;;;;;3.70;2.90;;;11.00;99.90;;;;;;6186604;23;20152;-79
2022/09/24 01:50:03;;;;;;;5.43;3.25;;;10.90;99.90;;;;;;6188466;23;19997;-79
2022/09/24 01:52:39;;;;;;;3.53;2.70;;;10.90;99.90;;;;;;6187468;23;20322;-80
2022/09/24 01:55:48;;;;;;;3.40;3.08;;;10.90;99.90;;;;;;6195850;22;20009;-86
2022/09/24 01:59:07;;;;;;;4.25;3.40;;;10.90;99.90;;;;;;6212559;23;20076;-87
2022/09/24 02:01:46;;;;;;;5.50;3.10;;;11.00;99.90;;;;;;6214416;22;20016;-86
2022/09/24 02:04:15;;;;;;;3.15;2.55;;;11.00;99.90;;;;;;6192453;23;20028;-86
2022/09/24 02:07:41;;;;;;;4.30;3.38;;;11.00;99.90;;;;;;6203973;23;20005;-83
2022/09/24 02:10:19;;;;;;;3.58;2.97;;;11.10;99.90;;;;;;6211889;23;20001;-83
2022/09/24 02:13:19;;;;;;;6.00;3.15;;;11.10;99.90;;;;;;6212255;23;20028;-82
2022/09/24 02:15:49;;;;;;;3.33;3.03;;;11.10;99.90;;;;;;6126924;23;19993;-86
2022/09/24 02:21:59;;;;;;;5.75;3.38;;;11.10;99.90;;;;;;6141337;23;20052;-86
2022/09/24 02:25:18;;;;;;;2.97;2.67;;;11.10;99.90;;;;;;6139095;23;20432;-88
2022/09/24 02:28:08;;;;;;;5.55;3.20;;;11.10;99.90;;;;;;6123731;23;20006;-87
2022/09/24 02:31:03;;;;;;;3.85;2.97;;;11.00;99.90;;;;;;6133779;23;20002;-87
2022/09/24 02:36:37;;;;;;;5.30;3.20;;;10.90;99.90;;;;;;6138253;23;20060;-88
2022/09/24 02:39:08;;;;;;;5.63;2.90;;;11.00;99.90;;;;;;6165494;23;20009;-87
2022/09/24 02:41:36;;;;;;;4.30;3.40;;;11.00;99.90;;;;;;6175846;23;20057;-84
2022/09/24 02:44:01;;;;;;;4.88;2.85;;;11.00;99.90;;;;;;6235860;22;20001;-83
2022/09/24 02:46:27;;;;;;;5.25;3.58;;;11.00;99.90;;;;;;6210829;23;20006;-83
2022/09/24 02:48:53;;;;;;;3.35;2.80;;;11.00;99.90;;;;;;6210584;23;19994;-84
2022/09/24 02:51:20;;;;;;;5.65;3.00;;;11.00;99.90;;;;;;6233874;23;20412;-83
2022/09/24 02:53:46;;;;;;;3.40;3.10;;;11.00;99.90;;;;;;6208245;23;20001;-86
2022/09/24 02:56:11;;;;;;;3.63;2.78;;;11.00;99.90;;;;;;6227762;22;20073;-86
2022/09/24 02:58:37;;;;;;;2.80;2.47;;;11.00;99.90;;;;;;6226098;23;20400;-86
2022/09/24 03:04:26;;;;;;;5.22;3.08;;;11.10;99.90;;;;;;6203018;23;20049;-85
2022/09/24 03:06:52;;;;;;;3.67;2.78;;;11.10;99.90;;;;;;6202518;23;20004;-85
2022/09/24 03:09:31;;;;;;;3.60;2.83;;;11.10;99.90;;;;;;6202821;23;19996;-87
2022/09/24 03:12:35;;;;;;;5.20;2.88;;;11.10;99.90;;;;;;6191006;23;20060;-85
2022/09/24 03:15:11;;;;;;;4.22;3.00;;;11.10;99.90;;;;;;6154279;23;20049;-86
2022/09/24 03:17:37;;;;;;;4.38;2.85;;;11.10;99.90;;;;;;6201060;23;20021;-88
2022/09/24 03:20:03;;;;;;;4.32;2.80;;;11.20;99.90;;;;;;6226262;23;20012;-85
2022/09/24 03:23:13;;;;;;;4.20;2.80;;;11.20;99.90;;;;;;6231492;23;20009;-86
2022/09/24 03:25:40;;;;;;;3.13;2.55;;;11.30;99.90;;;;;;6182298;23;20013;-85
2022/09/24 03:28:25;;;;;;;3.22;2.53;;;11.30;99.90;;;;;;6203265;23;20005;-87
2022/09/24 03:30:58;;;;;;;3.25;2.83;;;11.30;99.90;;;;;;6196917;23;20089;-86
2022/09/24 03:33:25;;;;;;;2.97;2.37;;;11.30;99.90;;;;;;6197863;23;19993;-87
2022/09/24 03:35:57;;;;;;;2.72;2.53;;;11.40;99.90;;;;;;6199215;23;20001;-86
2022/09/24 03:38:23;;;;;;;2.95;2.70;;;11.40;99.90;;;;;;6194346;23;20442;-86
2022/09/24 03:40:49;;;;;;;2.53;2.33;;;11.40;99.90;;;;;;6222166;23;20103;-87
2022/09/24 03:43:14;;;;;;;2.60;2.40;;;11.50;99.90;;;;;;6203521;23;19997;-87
2022/09/24 03:45:42;;;;;;;2.08;1.90;;;11.50;99.90;;;;;;6226370;23;20005;-87
2022/09/24 03:48:10;;;;;;;2.25;2.05;;;11.50;99.90;;;;;;6178063;23;20123;-87
2022/09/24 03:50:36;;;;;;;2.55;2.25;;;11.50;99.90;;;;;;6224999;23;20027;-86
2022/09/24 03:53:02;;;;;;;2.67;2.45;;;11.50;99.90;;;;;;6216493;23;20092;-86
2022/09/24 03:55:28;;;;;;;2.38;1.92;;;11.50;99.90;;;;;;6194640;23;20447;-86
2022/09/24 03:57:53;;;;;;;3.50;2.33;;;11.50;99.90;;;;;;6222051;23;20004;-86
2022/09/24 04:00:19;;;;;;;4.22;2.80;;;11.60;99.90;;;;;;6195373;23;20004;-86
2022/09/24 04:02:45;;;;;;;3.35;2.65;;;11.60;99.90;;;;;;6222489;23;20011;-85
2022/09/24 04:05:11;;;;;;;2.65;2.45;;;11.60;99.90;;;;;;6222022;23;20422;-86
2022/09/24 04:07:36;;;;;;;3.10;2.80;;;11.60;99.90;;;;;;6240062;22;20014;-82
2022/09/24 04:10:07;;;;;;;4.25;2.50;;;11.60;99.90;;;;;;6243238;22;20005;-82
2022/09/24 04:12:33;;;;;;;5.22;3.15;;;11.70;99.90;;;;;;6216551;23;20008;-82
2022/09/24 04:16:00;;;;;;;6.47;3.05;;;11.70;99.90;;;;;;6222853;23;20028;-87
2022/09/24 04:18:29;;;;;;;3.53;2.75;;;11.70;99.90;;;;;;6221421;23;20051;-86
2022/09/24 04:21:01;;;;;;;4.25;2.28;;;11.70;99.90;;;;;;6227465;23;19985;-86
2022/09/24 04:23:30;;;;;;;2.55;2.15;;;11.80;99.90;;;;;;6195699;23;20376;-86
2022/09/24 04:25:56;;;;;;;2.75;2.55;;;11.80;99.90;;;;;;6193700;23;20009;-86
2022/09/24 04:28:23;;;;;;;4.70;2.92;;;11.80;99.90;;;;;;6204348;23;20068;-83
2022/09/24 04:30:48;;;;;;;3.25;2.90;;;11.80;99.90;;;;;;6195950;23;20015;-83
2022/09/24 04:33:14;;;;;;;2.03;1.92;;;11.90;99.90;;;;;;6225842;23;20076;-83
2022/09/24 04:35:40;;;;;;;2.10;1.90;;;11.90;99.90;;;;;;6229983;23;20000;-83
2022/09/24 04:38:05;;;;;;;2.97;2.45;;;11.90;99.90;;;;;;6221390;23;20001;-83
2022/09/24 04:40:46;;;;;;;3.45;2.42;;;11.90;99.90;;;;;;6196705;23;20009;-82
2022/09/24 04:44:07;;;;;;;2.47;2.28;;;12.00;99.90;;;;;;6220451;23;20012;-83
2022/09/24 05:28:59;;;;;;;2.55;2.33;;;12.10;99.90;;;;;;6223531;23;20660;-83
2022/09/24 05:31:25;;;;;;;2.78;2.42;;;12.10;99.90;;;;;;6173603;23;20012;-80
2022/09/24 05:33:51;;;;;;;2.53;2.30;;;12.10;99.90;;;;;;6223314;23;20008;-85
2022/09/24 05:36:25;;;;;;;2.28;2.17;;;12.20;99.90;;;;;;6223113;23;20020;-84
2022/09/24 05:38:59;;;;;;;2.10;1.90;;;12.20;99.90;;;;;;6224694;23;20107;-85
2022/09/24 05:48:46;;;;;;;2.03;1.80;;;12.50;99.90;;;;;;6071610;23;20029;-84
2022/09/24 05:51:31;;;;;;;1.55;1.45;;;12.60;99.90;;;;;;6073602;23;20086;-83
2022/09/24 05:57:54;;;;;;;1.75;1.65;;;12.80;99.90;;;;;;6096722;23;20016;-83
2022/09/24 06:00:23;;;;;;;1.50;1.40;;;12.90;99.90;;;;;;6125245;23;20009;-83
2022/09/24 06:03:17;;;;;;;2.60;1.90;;;13.10;99.90;;;;;;6222104;23;20445;-82
2022/09/24 06:06:08;;;;;;;3.55;2.30;;;13.30;99.90;;;;;;6193380;23;20016;-83
2022/09/24 06:08:35;;;;;;;4.30;2.50;;;13.40;99.70;;;;;;6223399;23;20001;-84
2022/09/24 06:11:04;;;;;;;2.90;2.40;;;13.50;99.30;;;;;;6221112;22;20035;-85
2022/09/24 06:17:38;;;;;;;3.78;2.17;;;13.50;98.60;;;;;;6177543;23;20035;-85
2022/09/24 06:20:41;;;;;;;3.63;2.20;;;13.60;98.40;;;;;;6148508;23;20339;-87
2022/09/24 06:23:55;;;;;;;2.25;2.05;;;13.70;98.10;;;;;;6194035;23;20055;-83
2022/09/24 06:26:50;;;;;;;1.63;1.50;;;13.90;97.70;;;;;;6222823;23;20016;-83
2022/09/24 06:29:38;;;;;;;2.20;1.77;;;14.00;97.30;;;;;;6196476;23;20008;-87
2022/09/24 06:32:47;;;;;;;2.25;1.90;;;14.00;97.10;;;;;;6196839;23;20063;-86
2022/09/24 06:35:34;;;;;;;3.03;1.90;;;14.10;96.80;;;;;;6111356;23;20028;-83
2022/09/24 06:38:50;;;;;;;2.55;2.00;;;14.20;96.60;;;;;;6192668;23;20001;-84
2022/09/24 06:41:17;;;;;;;1.73;1.42;;;14.30;96.30;;;;;;6191116;23;20027;-82
2022/09/24 06:43:42;;;;;;;4.72;2.50;;;14.60;95.80;;;;;;6196564;23;20150;-84
2022/09/24 06:46:09;;;;;;;8.23;4.93;;;14.70;95.10;;;;;;6222102;23;19997;-83
2022/09/24 06:48:36;;;;;;;5.68;4.00;;;14.80;94.50;;;;;;6195265;23;20414;-83
2022/09/24 06:51:06;;;;;;;5.22;3.25;;;14.80;94.30;;;;;;6194473;23;20031;-84
2022/09/24 06:53:32;;;;;;;4.50;3.03;;;14.80;94.10;;;;;;6197435;23;20005;-83
2022/09/24 06:55:58;;;;;;;3.38;2.60;;;14.70;93.90;;;;;;6196053;23;20426;-82
2022/09/24 06:58:24;;;;;;;2.25;2.05;;;14.70;94.10;;;;;;6194981;23;20084;-82
2022/09/24 07:01:01;;;;;;;4.43;2.45;;;14.70;94.30;;;;;;6221881;23;20001;-82
2022/09/24 07:03:29;;;;;;;2.55;1.98;;;14.70;94.20;;;;;;6222248;23;20007;-81
2022/09/24 07:05:58;;;;;;;2.38;1.85;;;14.60;94.30;;;;;;6221545;23;20092;-82
2022/09/24 07:08:36;;;;;;;4.45;2.35;;;14.70;94.20;;;;;;6224724;23;20005;-81
2022/09/24 07:11:51;;;;;;;2.55;1.80;;;14.80;94.20;;;;;;6216119;23;20058;-83
2022/09/24 07:17:25;;;;;;;2.50;2.03;;;14.90;93.90;;;;;;6210222;23;20039;-83
2022/09/24 07:19:53;;;;;;;2.15;1.95;;;14.80;93.90;;;;;;6196926;23;20004;-83
2022/09/24 07:22:19;;;;;;;2.50;1.92;;;14.80;93.90;;;;;;6202591;23;20066;-83
2022/09/24 07:24:47;;;;;;;4.38;1.77;;;14.80;93.90;;;;;;6219665;23;20007;-81
2022/09/24 07:27:13;;;;;;;2.10;1.90;;;14.80;94.00;;;;;;6173401;23;20096;-82
2022/09/24 07:29:39;;;;;;;1.50;1.40;;;14.70;94.00;;;;;;6233721;23;20001;-84
2022/09/24 07:32:05;;;;;;;2.25;2.05;;;14.70;94.10;;;;;;6234995;23;20427;-83
2022/09/24 07:34:32;;;;;;;2.00;1.85;;;14.60;94.20;;;;;;6208871;23;20005;-84
2022/09/24 07:36:58;;;;;;;2.50;2.25;;;14.60;94.30;;;;;;6234581;23;20052;-82
2022/09/24 07:39:25;;;;;;;2.33;2.03;;;14.60;94.40;;;;;;6235371;23;20000;-81
2022/09/24 07:41:51;;;;;;;2.90;2.20;;;14.50;94.50;;;;;;6208144;23;20008;-86
2022/09/24 07:44:22;;;;;;;2.72;1.90;;;14.60;94.60;;;;;;6208727;23;20020;-81
2022/09/24 07:46:49;;;;;;;1.80;1.70;;;14.60;94.70;;;;;;6234413;23;20013;-82
2022/09/24 07:49:15;;;;;;;1.80;1.70;;;14.60;94.70;;;;;;6208964;22;20012;-82
2022/09/24 07:51:40;;;;;;;2.45;1.70;;;14.70;94.70;;;;;;6235504;23;20016;-81
2022/09/24 07:54:06;;;;;;;1.83;1.70;;;14.70;94.70;;;;;;6235795;23;20024;-81
2022/09/24 07:56:57;;;;;;;1.95;1.77;;;14.70;94.60;;;;;;6231147;23;20000;-85
2022/09/24 07:59:23;;;;;;;2.08;1.85;;;14.70;94.80;;;;;;6197648;23;20092;-84
2022/09/24 08:01:51;;;;;;;1.95;1.85;;;14.70;95.20;;;;;;6224309;23;20012;-83
2022/09/24 08:04:31;;;;;;;1.52;1.42;;;14.70;95.10;;;;;;6214650;23;20009;-83
2022/09/24 08:07:16;;;;;;;1.77;1.67;;;14.70;95.30;;;;;;6218062;23;20007;-83
2022/09/24 08:09:53;;;;;;;2.90;2.50;;;14.90;95.30;;;;;;6198019;23;20443;-83
2022/09/24 08:12:26;;;;;;;3.92;2.60;;;15.00;95.10;;;;;;6197596;23;20000;-83
2022/09/24 08:15:53;;;;;;;6.40;3.63;;;15.10;94.90;;;;;;6175180;23;20072;-85
2022/09/24 08:19:24;;;;;;;4.80;2.55;;;15.10;94.70;;;;;;6163084;23;20159;-85
2022/09/24 08:22:40;;;;;;;5.07;2.53;;;15.10;94.50;;;;;;6134012;23;20010;-84
2022/09/24 08:25:30;;;;;;;2.63;2.10;;;15.20;94.80;;;;;;6159102;23;20084;-82
2022/09/24 08:28:10;;;;;;;3.17;2.35;;;15.20;95.00;;;;;;6160819;23;20017;-82
2022/09/24 08:31:06;;;;;;;3.63;2.20;;;15.20;95.10;;;;;;6159815;23;20033;-84
2022/09/24 08:34:01;;;;;;;4.65;2.40;;;15.20;95.30;;;;;;6158317;23;20511;-81
2022/09/24 08:36:27;;;;;;;45.08;21.80;;;15.40;95.20;;;;;;6160383;23;20009;-83
2022/09/24 08:38:55;;;;;;;41.50;23.55;;;15.50;95.00;;;;;;6190398;23;20035;-83
2022/09/24 08:41:53;;;;;;;25.75;16.38;;;15.40;95.10;;;;;;6222168;23;20009;-82
2022/09/24 08:47:28;;;;;;;20.45;12.48;;;15.30;95.60;;;;;;6225541;23;20032;-82
2022/09/24 08:50:08;;;;;;;20.13;12.18;;;15.20;95.80;;;;;;6223309;23;20016;-83
2022/09/24 08:52:55;;;;;;;13.32;10.13;;;15.20;96.10;;;;;;6197633;23;20008;-83
2022/09/24 08:55:35;;;;;;;12.82;8.93;;;15.20;96.20;;;;;;6195581;23;20012;-83
2022/09/24 08:58:10;;;;;;;9.27;7.07;;;15.20;96.30;;;;;;6195116;23;20064;-83
2022/09/24 09:00:52;;;;;;;9.13;6.43;;;15.30;96.60;;;;;;6222366;23;19991;-84
2022/09/24 09:03:36;;;;;;;8.63;6.50;;;15.40;96.80;;;;;;6194911;22;20060;-84
2022/09/24 09:06:12;;;;;;;8.85;5.93;;;15.60;97.00;;;;;;6221686;23;20012;-83
2022/09/24 09:09:06;;;;;;;7.22;5.18;;;15.70;96.90;;;;;;6225455;23;20067;-82
2022/09/24 09:11:38;;;;;;;5.20;4.53;;;16.00;96.70;;;;;;6199282;23;20008;-84
2022/09/24 09:14:16;;;;;;;4.55;4.10;;;16.10;96.30;;;;;;6223805;22;20000;-82
2022/09/24 09:17:11;;;;;;;4.72;3.70;;;16.20;95.90;;;;;;6220343;23;20091;-84
2022/09/24 09:19:39;;;;;;;4.75;3.20;;;16.30;95.80;;;;;;6220423;23;19992;-82
2022/09/24 09:22:16;;;;;;;4.57;3.05;;;16.40;95.60;;;;;;6220848;23;20419;-83
2022/09/24 09:24:54;;;;;;;4.70;3.20;;;16.50;95.40;;;;;;6193533;23;20021;-83
2022/09/24 09:27:20;;;;;;;2.58;2.38;;;16.50;95.40;;;;;;6196043;23;20004;-83
2022/09/24 09:29:50;;;;;;;2.47;2.25;;;16.50;95.10;;;;;;6236350;23;20016;-84
2022/09/24 09:32:41;;;;;;;3.72;2.50;;;16.60;94.90;;;;;;6224300;23;20001;-82
2022/09/24 09:35:37;;;;;;;2.38;2.17;;;16.50;94.50;;;;;;6221117;23;20158;-82
2022/09/24 09:38:22;;;;;;;1.90;1.80;;;16.40;94.60;;;;;;6193938;23;20016;-82
2022/09/24 09:40:58;;;;;;;2.72;2.25;;;16.50;94.60;;;;;;6219227;23;20321;-84
2022/09/24 09:43:25;;;;;;;2.97;2.08;;;16.40;94.60;;;;;;6220674;23;20051;-84
2022/09/24 09:46:16;;;;;;;2.67;2.15;;;16.40;94.60;;;;;;6196597;22;20040;-85
2022/09/24 09:48:54;;;;;;;2.50;2.30;;;16.40;94.70;;;;;;6216279;22;20036;-84
2022/09/24 09:51:24;;;;;;;2.55;2.33;;;16.40;94.90;;;;;;6215705;22;20005;-82
2022/09/24 09:53:55;;;;;;;3.15;2.28;;;16.40;95.00;;;;;;6232283;23;19992;-83
2022/09/24 09:56:27;;;;;;;5.55;2.90;;;16.50;94.90;;;;;;6226423;23;20313;-82
2022/09/24 09:59:06;;;;;;;6.70;3.75;;;16.50;94.20;;;;;;6223522;23;20000;-83
2022/09/24 10:01:34;;;;;;;3.67;3.00;;;16.50;93.90;;;;;;6229963;22;20040;-83
2022/09/24 10:04:03;;;;;;;5.78;3.00;;;16.40;94.20;;;;;;6194246;23;20013;-83
2022/09/24 10:06:32;;;;;;;3.75;3.08;;;16.40;94.40;;;;;;6221590;23;19993;-83
2022/09/24 10:09:20;;;;;;;3.50;2.85;;;16.40;94.00;;;;;;6202477;23;20013;-83
2022/09/24 10:11:47;;;;;;;6.07;2.90;;;16.40;94.30;;;;;;6219379;23;20036;-83
2022/09/24 10:14:15;;;;;;;2.50;2.30;;;16.40;94.50;;;;;;6192568;23;20000;-82
2022/09/24 10:16:44;;;;;;;4.85;2.88;;;16.40;94.20;;;;;;6220751;23;20008;-83
2022/09/24 10:19:21;;;;;;;2.63;2.42;;;16.40;94.60;;;;;;6192869;23;20008;-83
2022/09/24 10:21:49;;;;;;;3.28;2.83;;;16.40;94.70;;;;;;6193408;23;20005;-82
2022/09/24 10:24:18;;;;;;;4.07;2.83;;;16.40;94.80;;;;;;6192482;23;20016;-84
2022/09/24 10:26:46;;;;;;;3.55;2.92;;;16.40;94.70;;;;;;6192654;23;20066;-82
2022/09/24 10:32:18;;;;;;;4.32;2.47;;;16.50;94.80;;;;;;6221944;23;20007;-84
2022/09/24 10:35:00;;;;;;;2.83;2.53;;;16.50;94.70;;;;;;6221211;23;20035;-83
2022/09/24 10:37:27;;;;;;;6.00;3.00;;;16.60;95.00;;;;;;6218818;23;20402;-83
2022/09/24 10:40:01;;;;;;;11.77;5.25;;;16.60;94.90;;;;;;6218836;23;20462;-82
2022/09/24 10:42:29;;;;;;;54.08;22.05;;;16.60;95.30;;;;;;6220030;23;20009;-82
2022/09/24 10:44:57;;;;;;;100.28;41.25;;;16.60;95.30;;;;;;6193451;23;20009;-83
2022/09/24 10:47:46;;;;;;;71.53;32.75;;;16.50;95.40;;;;;;6218903;23;20426;-83
2022/09/24 10:50:18;;;;;;;47.08;22.50;;;16.50;95.80;;;;;;6172361;23;20008;-82
2022/09/24 10:52:54;;;;;;;11.35;7.70;;;16.40;96.00;;;;;;6219983;23;19996;-82
2022/09/24 10:55:46;;;;;;;8.38;6.45;;;16.30;95.90;;;;;;6195509;23;20096;-83
2022/09/24 10:58:24;;;;;;;6.53;5.35;;;16.20;96.50;;;;;;6223608;23;19996;-83
2022/09/24 11:01:02;;;;;;;6.30;5.07;;;16.10;97.10;;;;;;6223144;23;20004;-81
2022/09/24 11:03:52;;;;;;;4.30;3.90;;;16.00;97.60;;;;;;6224297;23;20001;-81
2022/09/24 11:06:30;;;;;;;5.70;4.68;;;16.00;98.00;;;;;;6236696;23;20094;-82
2022/09/24 11:09:08;;;;;;;5.25;4.75;;;16.00;98.30;;;;;;6236098;23;20012;-82
2022/09/24 11:11:41;;;;;;;5.68;5.13;;;16.00;98.40;;;;;;6235053;23;20056;-83
2022/09/24 11:14:07;;;;;;;6.65;5.95;;;15.90;98.60;;;;;;6233389;23;20064;-81
2022/09/24 11:17:15;;;;;;;8.27;5.80;;;15.90;98.90;;;;;;6201602;23;20001;-81
2022/09/24 11:20:22;;;;;;;7.85;5.70;;;15.90;99.10;;;;;;6192669;23;20079;-81
2022/09/24 11:23:15;;;;;;;7.45;4.50;;;15.90;99.50;;;;;;6220329;23;20001;-81
2022/09/24 11:25:56;;;;;;;5.18;4.30;;;15.80;99.60;;;;;;6193526;23;20082;-82
2022/09/24 11:28:59;;;;;;;5.63;4.00;;;15.90;99.50;;;;;;6221231;23;20003;-84
2022/09/24 11:31:44;;;;;;;3.47;3.17;;;16.00;99.50;;;;;;6220937;23;20001;-83
2022/09/24 11:34:36;;;;;;;4.40;3.42;;;16.10;99.60;;;;;;6219961;23;20004;-82
2022/09/24 11:37:27;;;;;;;4.13;3.00;;;16.30;99.70;;;;;;6219180;23;20539;-81
2022/09/24 11:40:15;;;;;;;4.75;3.65;;;16.50;99.20;;;;;;6221598;23;19997;-82
2022/09/24 11:43:08;;;;;;;6.53;3.50;;;16.70;97.80;;;;;;6221542;23;20004;-82
2022/09/24 11:45:40;;;;;;;3.97;3.58;;;16.80;97.70;;;;;;6193940;23;20433;-81
2022/09/24 11:48:22;;;;;;;6.53;4.40;;;16.80;97.40;;;;;;6220613;23;20005;-81
2022/09/24 11:50:57;;;;;;;5.30;4.00;;;16.80;96.90;;;;;;6194851;23;20019;-82
2022/09/24 11:53:33;;;;;;;5.13;4.03;;;16.70;97.40;;;;;;6221782;23;20045;-83
2022/09/24 11:56:04;;;;;;;4.00;3.53;;;16.60;97.50;;;;;;6220805;23;20057;-83
2022/09/24 11:58:57;;;;;;;7.28;4.75;;;16.60;97.80;;;;;;6221528;23;19996;-81
2022/09/24 12:01:34;;;;;;;5.47;4.22;;;16.70;97.10;;;;;;6221755;23;20003;-82
2022/09/24 12:04:26;;;;;;;5.47;3.72;;;16.60;97.70;;;;;;6221499;23;20001;-81
2022/09/24 12:07:41;;;;;;;48.08;25.27;;;16.50;97.90;;;;;;6221148;23;20471;-81
2022/09/24 12:10:28;;;;;;;25.45;12.63;;;16.50;97.50;;;;;;6125647;23;20016;-81
2022/09/24 12:13:17;;;;;;;20.38;10.90;;;16.40;97.90;;;;;;6219337;23;20075;-82
2022/09/24 12:15:55;;;;;;;10.80;6.80;;;16.40;98.10;;;;;;6193234;23;20004;-81
2022/09/24 12:18:55;;;;;;;9.38;5.22;;;16.30;98.70;;;;;;6193362;23;20000;-80
2022/09/24 12:21:33;;;;;;;8.43;6.20;;;16.20;99.00;;;;;;6203436;23;20005;-82
2022/09/24 12:24:04;;;;;;;8.45;5.63;;;16.20;98.90;;;;;;6221130;23;20012;-84
2022/09/24 12:26:34;;;;;;;8.45;6.57;;;16.20;98.90;;;;;;6220313;23;20004;-83
2022/09/24 12:35:07;;;;;;;5.57;5.05;;;16.40;99.40;;;;;;6221222;23;20039;-81
2022/09/24 12:37:38;;;;;;;8.02;5.70;;;16.60;99.20;;;;;;6219773;23;20008;-81
2022/09/24 12:40:18;;;;;;;7.43;5.40;;;16.70;98.40;;;;;;6197235;23;20011;-81
2022/09/24 12:43:23;;;;;;;5.53;4.97;;;16.80;98.10;;;;;;6228152;22;20005;-89
2022/09/24 12:49:24;;;;;;;3.33;2.95;;;17.10;97.70;;;;;;6167511;23;20068;-82
2022/09/24 12:51:55;;;;;;;5.10;4.22;;;17.40;97.40;;;;;;6138432;23;20001;-82
2022/09/24 12:54:36;;;;;;;3.55;2.92;;;17.60;96.10;;;;;;6221102;23;20012;-81
2022/09/24 12:57:25;;;;;;;4.75;3.55;;;17.70;95.80;;;;;;6194216;23;20454;-81
2022/09/24 12:59:53;;;;;;;4.13;3.72;;;17.80;95.30;;;;;;6193459;23;20051;-82
2022/09/24 13:02:22;;;;;;;4.40;4.00;;;17.90;94.20;;;;;;6193605;23;20390;-82
2022/09/24 13:05:00;;;;;;;5.20;4.07;;;17.80;94.20;;;;;;6224419;23;20005;-82
2022/09/24 13:07:43;;;;;;;4.07;3.60;;;17.70;94.20;;;;;;6224312;23;20428;-80
2022/09/24 13:10:24;;;;;;;5.20;4.53;;;17.50;94.80;;;;;;6198114;23;20020;-81
2022/09/24 13:12:53;;;;;;;6.65;4.80;;;17.50;94.90;;;;;;6195192;23;20001;-83
2022/09/24 13:15:35;;;;;;;4.43;3.70;;;17.50;94.60;;;;;;6194493;23;20005;-81
2022/09/24 13:18:10;;;;;;;6.15;3.30;;;17.50;94.60;;;;;;6193291;23;20011;-83
2022/09/24 13:20:42;;;;;;;4.10;3.70;;;17.50;94.30;;;;;;6220115;23;20001;-82
2022/09/24 13:23:30;;;;;;;6.18;4.40;;;17.50;94.60;;;;;;6193289;23;20001;-84
2022/09/24 13:25:59;;;;;;;7.88;4.15;;;17.50;94.00;;;;;;6192037;23;20013;-82
2022/09/24 13:28:26;;;;;;;5.53;3.97;;;17.60;93.90;;;;;;6219726;23;20007;-81
2022/09/24 13:31:02;;;;;;;5.10;3.63;;;17.70;93.80;;;;;;6220455;22;20066;-81
2022/09/24 13:33:46;;;;;;;6.20;3.42;;;17.80;93.70;;;;;;6193623;23;20142;-82
2022/09/24 13:36:35;;;;;;;3.72;2.80;;;18.00;93.50;;;;;;6170771;23;1120547;-84
2022/09/24 13:39:16;;;;;;;5.38;3.15;;;18.00;92.90;;;;;;6220810;23;19996;-82
2022/09/24 13:42:04;;;;;;;3.93;2.87;;;18.10;92.10;;;;;;6194978;23;20015;-84
2022/09/24 13:44:33;;;;;;;4.15;3.00;;;18.10;92.40;;;;;;6194013;23;20283;-82
2022/09/24 13:47:24;;;;;;;3.35;2.65;;;18.00;91.90;;;;;;6194809;23;20072;-82
2022/09/24 13:49:53;;;;;;;2.78;2.50;;;17.90;92.20;;;;;;6220452;23;20004;-83
2022/09/24 13:52:48;;;;;;;3.17;2.85;;;17.80;92.50;;;;;;6220666;23;20007;-82
2022/09/24 13:55:33;;;;;;;4.80;4.00;;;17.60;92.60;;;;;;6174335;23;20009;-84
2022/09/24 13:57:59;;;;;;;4.82;3.75;;;17.60;93.30;;;;;;6220651;23;20028;-82
2022/09/24 14:00:28;;;;;;;4.95;4.03;;;17.40;93.90;;;;;;6220424;23;20012;-82
2022/09/24 14:02:57;;;;;;;4.32;3.85;;;17.30;93.90;;;;;;6220041;23;20125;-84
2022/09/24 14:05:23;;;;;;;3.80;3.25;;;17.20;94.30;;;;;;6220786;23;20011;-83
2022/09/24 14:08:02;;;;;;;5.93;3.97;;;17.10;94.70;;;;;;6192645;22;20019;-81
2022/09/24 14:10:28;;;;;;;4.40;3.50;;;17.10;94.40;;;;;;6218975;23;20035;-81
2022/09/24 14:13:01;;;;;;;3.92;3.55;;;17.00;94.30;;;;;;6220176;23;20383;-83
2022/09/24 14:15:27;;;;;;;4.10;3.63;;;17.00;94.70;;;;;;6219354;23;20005;-82
2022/09/24 14:17:59;;;;;;;4.50;3.40;;;17.10;94.70;;;;;;6219541;23;20339;-81
2022/09/24 14:20:32;;;;;;;6.75;4.22;;;17.10;94.20;;;;;;6231940;23;19992;-82
2022/09/24 14:22:57;;;;;;;13.98;9.65;;;17.10;94.20;;;;;;6192322;23;20016;-81
2022/09/24 14:25:33;;;;;;;6.95;6.03;;;17.20;94.20;;;;;;6219094;23;20001;-83
2022/09/24 14:28:00;;;;;;;6.35;4.60;;;17.20;94.40;;;;;;6190983;23;20005;-82
2022/09/24 14:30:29;;;;;;;6.65;3.90;;;17.10;94.20;;;;;;6193980;23;20012;-83
2022/09/24 14:33:05;;;;;;;3.78;3.40;;;17.10;94.10;;;;;;6193160;23;20008;-81
2022/09/24 14:35:37;;;;;;;4.60;3.60;;;17.10;94.50;;;;;;6193245;23;20060;-83
2022/09/24 14:38:07;;;;;;;5.28;3.00;;;17.10;94.30;;;;;;6221343;23;20497;-83
2022/09/24 14:40:46;;;;;;;4.78;3.60;;;17.10;94.40;;;;;;6239782;22;20013;-85
2022/09/24 14:43:30;;;;;;;3.85;2.97;;;17.10;94.30;;;;;;6242919;22;20000;-84
2022/09/24 14:46:01;;;;;;;3.97;3.50;;;17.00;94.10;;;;;;6217237;22;20025;-85
2022/09/24 14:49:19;;;;;;;3.97;3.28;;;17.00;94.40;;;;;;6216849;22;20015;-85
2022/09/24 14:52:02;;;;;;;3.55;3.15;;;16.90;94.60;;;;;;6188551;22;19992;-83
2022/09/24 14:54:33;;;;;;;4.30;3.20;;;16.60;95.00;;;;;;6242461;22;20005;-84
2022/09/24 14:57:37;;;;;;;6.05;4.28;;;16.60;95.30;;;;;;6216365;22;20059;-85
2022/09/24 15:00:20;;;;;;;4.10;3.70;;;16.50;95.50;;;;;;6181222;23;20013;-81
2022/09/24 15:03:40;;;;;;;4.85;3.55;;;16.40;95.60;;;;;;6192653;23;20001;-82
2022/09/24 15:06:41;;;;;;;5.03;4.35;;;16.20;96.20;;;;;;6191717;23;20004;-83